Time;durP1;ratioP1;P1;durP2;ratioP2;P2;SDS_P1;SDS_P2;PMS_P1;PMS_P2;Temp;Humidity;BMP_temperature;BMP_pressure;BME280_temperature;BME280_humidity;BME280_pressure;Samples;Min_cycle;Max_cycle;Signal;HPM_P1;HPM_P2
2022/09/17 00:00:48;;;;;;;1.73;0.50;;;14.60;99.90;;;;;;7394586;19;20213;-86
2022/09/17 00:03:15;;;;;;;0.50;0.47;;;14.50;99.90;;;;;;7394398;19;20134;-85
2022/09/17 00:05:41;;;;;;;2.75;0.60;;;14.60;99.90;;;;;;7397459;19;20599;-84
2022/09/17 00:08:10;;;;;;;0.60;0.50;;;14.50;99.90;;;;;;7398465;19;20458;-85
2022/09/17 00:10:40;;;;;;;0.60;0.60;;;14.50;99.90;;;;;;7402409;19;20599;-86
2022/09/17 00:13:07;;;;;;;1.98;0.60;;;14.50;99.90;;;;;;7400952;19;20167;-85
2022/09/17 00:15:40;;;;;;;0.30;0.30;;;14.30;99.90;;;;;;7401684;19;20137;-86
2022/09/17 00:18:05;;;;;;;1.60;0.50;;;14.20;99.90;;;;;;7401249;19;20149;-87
2022/09/17 00:20:31;;;;;;;1.85;0.45;;;14.00;99.90;;;;;;7404032;19;20143;-86
2022/09/17 00:22:57;;;;;;;0.30;0.30;;;14.20;99.90;;;;;;7401451;19;20135;-85
2022/09/17 00:25:22;;;;;;;1.45;0.40;;;14.00;99.90;;;;;;7400125;19;20150;-87
2022/09/17 00:27:48;;;;;;;1.02;0.60;;;14.10;99.90;;;;;;7402318;19;20215;-87
2022/09/17 00:30:14;;;;;;;1.23;0.52;;;14.30;99.90;;;;;;7398083;19;20739;-86
2022/09/17 00:32:40;;;;;;;0.88;0.60;;;14.50;99.90;;;;;;7404860;19;20153;-86
2022/09/17 00:35:07;;;;;;;1.13;0.50;;;14.40;99.90;;;;;;7402214;19;20557;-86
2022/09/17 00:37:33;;;;;;;1.73;0.47;;;14.30;99.90;;;;;;7403393;19;20142;-85
2022/09/17 00:39:58;;;;;;;0.90;0.50;;;14.40;99.90;;;;;;7401067;19;20576;-86
2022/09/17 00:42:24;;;;;;;1.67;0.73;;;14.20;99.90;;;;;;7402501;19;20906;-87
2022/09/17 00:44:52;;;;;;;0.60;0.57;;;14.30;99.90;;;;;;7403333;19;20130;-86
2022/09/17 00:47:25;;;;;;;0.93;0.40;;;14.30;99.90;;;;;;7398284;19;20169;-87
2022/09/17 00:49:59;;;;;;;0.70;0.50;;;14.30;99.90;;;;;;7402920;19;20139;-86
2022/09/17 00:52:33;;;;;;;1.63;0.60;;;14.20;99.90;;;;;;7399651;19;20168;-85
2022/09/17 00:55:30;;;;;;;0.73;0.60;;;14.30;99.90;;;;;;7400118;19;20139;-88
2022/09/17 00:58:00;;;;;;;2.20;0.50;;;14.40;99.90;;;;;;7402445;19;20510;-86
2022/09/17 01:00:27;;;;;;;0.50;0.50;;;14.50;99.90;;;;;;7401902;19;20138;-83
2022/09/17 01:02:54;;;;;;;0.97;0.60;;;14.40;99.90;;;;;;7398135;19;20142;-83
2022/09/17 01:05:53;;;;;;;0.90;0.70;;;14.50;99.90;;;;;;7403556;19;20146;-87
2022/09/17 01:08:34;;;;;;;0.50;0.50;;;14.50;99.90;;;;;;7398345;19;20158;-86
2022/09/17 01:11:34;;;;;;;1.15;0.75;;;14.40;99.90;;;;;;7399233;19;20222;-85
2022/09/17 01:14:12;;;;;;;1.58;0.50;;;14.40;99.90;;;;;;7399515;19;20171;-84
2022/09/17 01:17:21;;;;;;;0.60;0.50;;;14.20;99.90;;;;;;7400108;19;20135;-84
2022/09/17 01:20:24;;;;;;;0.90;0.53;;;14.10;99.90;;;;;;7401317;19;20156;-85
2022/09/17 01:23:28;;;;;;;0.93;0.60;;;14.00;99.90;;;;;;7398347;19;20142;-85
2022/09/17 01:26:34;;;;;;;0.80;0.70;;;14.20;99.90;;;;;;7393337;19;20162;-84
2022/09/17 01:29:06;;;;;;;1.13;0.70;;;14.20;99.90;;;;;;7395874;19;20150;-83
2022/09/17 01:31:37;;;;;;;0.43;0.43;;;14.20;99.90;;;;;;7397759;19;20141;-85
2022/09/17 01:34:17;;;;;;;0.70;0.60;;;14.30;99.90;;;;;;7398743;19;20142;-85
2022/09/17 01:36:48;;;;;;;2.83;0.70;;;14.20;99.90;;;;;;7396259;19;20139;-83
2022/09/17 01:39:17;;;;;;;1.93;0.90;;;14.30;99.90;;;;;;7397145;19;20142;-85
2022/09/17 01:41:55;;;;;;;1.10;0.60;;;14.30;99.90;;;;;;7400135;19;20167;-84
2022/09/17 01:44:44;;;;;;;1.13;0.70;;;14.30;99.90;;;;;;7397686;19;20130;-84
2022/09/17 01:47:20;;;;;;;1.57;1.13;;;14.20;99.90;;;;;;7398257;19;20127;-86
2022/09/17 01:49:47;;;;;;;1.53;0.70;;;14.10;99.90;;;;;;7396676;19;20179;-87
2022/09/17 01:52:14;;;;;;;0.93;0.68;;;14.10;99.90;;;;;;7396799;19;20172;-84
2022/09/17 01:54:48;;;;;;;0.60;0.55;;;14.10;99.90;;;;;;7395999;19;20157;-84
2022/09/17 01:57:32;;;;;;;0.45;0.45;;;14.30;99.90;;;;;;7393726;19;20832;-86
2022/09/17 02:00:01;;;;;;;2.77;0.70;;;14.00;99.90;;;;;;7395876;19;20146;-85
2022/09/17 02:02:34;;;;;;;1.43;0.77;;;14.30;99.90;;;;;;7395731;19;20142;-85
2022/09/17 02:05:13;;;;;;;1.83;0.83;;;14.00;99.90;;;;;;7393066;19;20131;-86
2022/09/17 02:07:52;;;;;;;0.80;0.50;;;14.00;99.90;;;;;;7393120;19;20150;-85
2022/09/17 02:10:26;;;;;;;0.50;0.50;;;13.90;99.90;;;;;;7394938;19;20142;-87
2022/09/17 02:12:57;;;;;;;0.97;0.60;;;14.10;99.90;;;;;;7398113;19;20127;-85
2022/09/17 02:15:30;;;;;;;3.10;0.63;;;13.90;99.90;;;;;;7394472;19;20142;-86
2022/09/17 02:18:09;;;;;;;1.20;0.60;;;13.80;99.90;;;;;;7392423;19;20165;-85
2022/09/17 02:20:45;;;;;;;2.30;0.60;;;13.90;99.90;;;;;;7394691;19;20511;-84
2022/09/17 02:23:15;;;;;;;0.77;0.57;;;14.00;99.90;;;;;;7396612;19;20667;-85
2022/09/17 02:25:49;;;;;;;1.85;1.00;;;13.80;99.90;;;;;;7392987;19;20174;-83
2022/09/17 02:28:30;;;;;;;2.43;0.70;;;13.90;99.90;;;;;;7393014;19;20135;-85
2022/09/17 02:30:56;;;;;;;2.03;0.80;;;14.00;99.90;;;;;;7394936;19;20542;-86
2022/09/17 02:33:22;;;;;;;3.13;1.03;;;13.90;99.90;;;;;;7395151;19;20188;-85
2022/09/17 02:35:49;;;;;;;1.17;0.80;;;14.00;99.90;;;;;;7393300;19;20559;-84
2022/09/17 02:38:23;;;;;;;2.70;0.90;;;13.90;99.90;;;;;;7393188;19;20164;-85
2022/09/17 02:41:00;;;;;;;0.83;0.80;;;13.80;99.90;;;;;;7394939;19;20138;-87
2022/09/17 02:43:44;;;;;;;2.10;0.70;;;13.90;99.90;;;;;;7396597;19;20150;-86
2022/09/17 02:46:16;;;;;;;0.77;0.47;;;14.00;99.90;;;;;;7397388;19;20138;-85
2022/09/17 02:49:26;;;;;;;1.77;0.67;;;13.90;99.90;;;;;;7393347;19;20131;-85
2022/09/17 02:52:02;;;;;;;1.37;0.70;;;13.90;99.90;;;;;;7395914;19;20138;-84
2022/09/17 02:54:39;;;;;;;1.70;0.70;;;14.00;99.90;;;;;;7397599;19;20149;-78
2022/09/17 02:57:32;;;;;;;1.08;0.45;;;14.00;99.90;;;;;;7391753;19;20146;-77
2022/09/17 03:00:03;;;;;;;1.13;0.60;;;13.90;99.90;;;;;;7393032;19;20500;-86
2022/09/17 03:02:47;;;;;;;3.20;0.75;;;14.10;99.90;;;;;;7395447;19;20154;-84
2022/09/17 03:05:16;;;;;;;1.23;0.67;;;14.00;99.90;;;;;;7394363;19;20146;-86
2022/09/17 03:07:42;;;;;;;1.90;0.63;;;14.00;99.90;;;;;;7391025;19;20167;-86
2022/09/17 03:10:08;;;;;;;0.70;0.50;;;14.20;99.90;;;;;;7394436;19;20147;-88
2022/09/17 03:12:35;;;;;;;3.33;1.10;;;14.10;99.90;;;;;;7393478;19;20159;-85
2022/09/17 03:15:00;;;;;;;3.97;0.70;;;14.00;99.90;;;;;;7396026;19;20130;-86
2022/09/17 03:17:26;;;;;;;1.70;0.70;;;14.10;99.90;;;;;;7392160;19;20154;-86
2022/09/17 03:19:52;;;;;;;1.92;0.70;;;14.10;99.90;;;;;;7391308;19;20150;-85
2022/09/17 03:22:18;;;;;;;2.37;0.80;;;13.90;99.90;;;;;;7391199;19;20584;-86
2022/09/17 03:24:44;;;;;;;0.87;0.67;;;13.90;99.90;;;;;;7392391;19;20150;-87
2022/09/17 03:27:09;;;;;;;2.45;0.60;;;13.90;99.90;;;;;;7392496;19;20783;-87
2022/09/17 03:29:35;;;;;;;0.73;0.50;;;14.00;99.90;;;;;;7393608;19;20526;-86
2022/09/17 03:32:01;;;;;;;2.50;1.02;;;13.90;99.90;;;;;;7394160;19;20151;-85
2022/09/17 03:34:27;;;;;;;1.13;0.70;;;13.80;99.90;;;;;;7391524;19;20138;-85
2022/09/17 03:36:52;;;;;;;1.07;0.53;;;13.90;99.90;;;;;;7392739;19;20150;-85
2022/09/17 03:39:18;;;;;;;2.60;0.73;;;13.70;99.90;;;;;;7391348;19;20159;-86
2022/09/17 03:41:44;;;;;;;0.93;0.60;;;13.70;99.90;;;;;;7397328;19;20166;-86
2022/09/17 03:44:10;;;;;;;1.77;0.80;;;13.60;99.90;;;;;;7398606;19;20868;-87
2022/09/17 03:46:36;;;;;;;1.67;0.70;;;13.80;99.90;;;;;;7400632;19;20130;-87
2022/09/17 03:49:02;;;;;;;3.43;0.80;;;13.70;99.90;;;;;;7398169;19;20142;-86
2022/09/17 03:51:28;;;;;;;1.90;0.60;;;13.80;99.90;;;;;;7399311;19;20147;-86
2022/09/17 03:53:54;;;;;;;1.43;0.70;;;13.70;99.90;;;;;;7398271;19;20160;-86
2022/09/17 03:56:20;;;;;;;1.23;0.80;;;13.60;99.90;;;;;;7399503;19;20131;-86
2022/09/17 03:58:46;;;;;;;2.53;1.00;;;13.70;99.90;;;;;;7397099;19;20154;-85
2022/09/17 04:01:12;;;;;;;4.55;0.80;;;13.60;99.90;;;;;;7398665;19;20218;-84
2022/09/17 04:03:38;;;;;;;2.57;0.70;;;13.70;99.90;;;;;;7397622;19;20191;-85
2022/09/17 04:06:03;;;;;;;2.20;1.20;;;13.60;99.90;;;;;;7399231;19;20154;-85
2022/09/17 04:08:29;;;;;;;2.03;0.60;;;13.70;99.90;;;;;;7393478;19;20127;-87
2022/09/17 04:10:55;;;;;;;1.57;0.73;;;13.80;99.90;;;;;;7400661;19;20557;-86
2022/09/17 04:13:21;;;;;;;2.50;0.80;;;13.70;99.90;;;;;;7399689;19;20166;-84
2022/09/17 04:15:46;;;;;;;2.53;0.80;;;13.70;99.90;;;;;;7397677;19;20135;-87
2022/09/17 04:18:13;;;;;;;1.23;0.70;;;13.50;99.90;;;;;;7397751;19;20151;-86
2022/09/17 04:20:39;;;;;;;1.73;0.80;;;13.60;99.90;;;;;;7398831;19;20170;-86
2022/09/17 04:23:08;;;;;;;1.73;0.63;;;13.60;99.90;;;;;;7397725;19;20139;-85
2022/09/17 04:25:33;;;;;;;3.00;0.80;;;13.70;99.90;;;;;;7397314;19;20162;-85
2022/09/17 04:27:59;;;;;;;1.60;0.90;;;13.70;99.90;;;;;;7397117;19;20143;-84
2022/09/17 04:30:25;;;;;;;3.57;0.70;;;13.50;99.90;;;;;;7398233;19;20225;-85
2022/09/17 04:32:51;;;;;;;2.27;0.90;;;13.60;99.90;;;;;;7397761;19;20153;-84
2022/09/17 04:35:17;;;;;;;2.70;0.70;;;13.30;99.90;;;;;;7396844;19;20158;-85
2022/09/17 04:37:42;;;;;;;3.10;0.77;;;13.50;99.90;;;;;;7397107;19;20131;-86
2022/09/17 04:40:09;;;;;;;5.17;1.00;;;13.30;99.90;;;;;;7397860;19;20142;-86
2022/09/17 04:42:34;;;;;;;3.20;0.80;;;13.50;99.90;;;;;;7397840;19;20123;-87
2022/09/17 04:45:00;;;;;;;1.53;0.57;;;13.60;99.90;;;;;;7397566;19;20179;-86
2022/09/17 04:47:26;;;;;;;0.77;0.50;;;13.50;99.90;;;;;;7396336;19;20460;-87
2022/09/17 04:49:52;;;;;;;5.15;0.77;;;13.50;99.90;;;;;;7396260;19;20226;-84
2022/09/17 04:52:18;;;;;;;3.60;0.70;;;13.50;99.90;;;;;;7395384;19;20162;-85
2022/09/17 04:54:44;;;;;;;2.70;0.80;;;13.70;99.90;;;;;;7395845;19;20659;-85
2022/09/17 04:57:10;;;;;;;2.20;0.80;;;13.50;99.90;;;;;;7398140;19;20139;-83
2022/09/17 04:59:36;;;;;;;2.53;1.00;;;13.50;99.90;;;;;;7398490;19;20190;-85
2022/09/17 05:02:01;;;;;;;2.57;0.90;;;13.60;99.90;;;;;;7398219;19;20167;-85
2022/09/17 05:04:27;;;;;;;1.13;0.73;;;13.70;99.90;;;;;;7396108;19;20142;-85
2022/09/17 05:06:53;;;;;;;4.17;0.90;;;13.70;99.90;;;;;;7396391;19;20527;-86
2022/09/17 05:09:18;;;;;;;2.87;0.80;;;13.50;99.90;;;;;;7396902;19;20157;-85
2022/09/17 05:11:44;;;;;;;2.40;1.10;;;13.50;99.90;;;;;;7396029;19;20153;-86
2022/09/17 05:14:10;;;;;;;2.80;1.00;;;13.50;99.90;;;;;;7395374;19;20158;-85
2022/09/17 05:16:36;;;;;;;2.37;0.90;;;13.40;99.90;;;;;;7395546;19;20134;-84
2022/09/17 05:19:02;;;;;;;2.23;0.90;;;13.40;99.90;;;;;;7395195;19;20139;-85
2022/09/17 05:21:28;;;;;;;3.20;1.00;;;13.30;99.90;;;;;;7396850;19;20158;-86
2022/09/17 05:23:54;;;;;;;3.55;0.90;;;13.20;99.90;;;;;;7395310;19;20154;-84
2022/09/17 05:26:20;;;;;;;4.43;1.03;;;13.10;99.90;;;;;;7396852;19;20157;-85
2022/09/17 05:28:45;;;;;;;2.77;0.90;;;13.50;99.90;;;;;;7392168;19;20515;-87
2022/09/17 05:31:12;;;;;;;2.15;0.90;;;13.40;99.90;;;;;;7397120;19;20162;-85
2022/09/17 05:33:38;;;;;;;1.57;0.70;;;13.20;99.90;;;;;;7399729;19;20638;-88
2022/09/17 05:36:04;;;;;;;5.37;0.90;;;13.20;99.90;;;;;;7399530;19;20150;-86
2022/09/17 05:38:30;;;;;;;2.53;0.90;;;13.40;99.90;;;;;;7392993;19;20269;-85
2022/09/17 05:40:56;;;;;;;4.32;0.90;;;13.50;99.90;;;;;;7395489;19;20134;-87
2022/09/17 05:43:22;;;;;;;4.90;1.00;;;13.50;99.90;;;;;;7393936;19;20150;-85
2022/09/17 05:45:48;;;;;;;1.70;0.83;;;13.50;99.90;;;;;;7396146;19;20587;-85
2022/09/17 05:48:14;;;;;;;1.53;0.70;;;13.60;99.90;;;;;;7392346;19;20162;-84
2022/09/17 05:50:40;;;;;;;2.27;0.67;;;13.80;99.90;;;;;;7395823;19;20579;-86
2022/09/17 05:53:14;;;;;;;3.10;1.10;;;13.70;99.90;;;;;;7396729;19;20142;-85
2022/09/17 05:55:39;;;;;;;2.93;0.90;;;13.70;99.90;;;;;;7398044;19;20139;-86
2022/09/17 05:58:10;;;;;;;1.03;0.70;;;13.80;99.90;;;;;;7395684;19;20134;-86
2022/09/17 06:00:36;;;;;;;5.43;1.00;;;13.80;99.90;;;;;;7392879;19;20131;-85
2022/09/17 06:03:02;;;;;;;1.80;0.90;;;13.80;99.90;;;;;;7394719;19;20186;-87
2022/09/17 06:05:28;;;;;;;4.00;1.10;;;13.70;99.90;;;;;;7389886;19;20160;-84
2022/09/17 06:07:53;;;;;;;2.30;1.00;;;13.80;99.90;;;;;;7395573;19;20149;-85
2022/09/17 06:10:19;;;;;;;2.53;0.83;;;13.70;99.90;;;;;;7395045;19;20158;-85
2022/09/17 06:12:45;;;;;;;6.20;1.37;;;14.00;99.90;;;;;;7393515;19;20139;-83
2022/09/17 06:15:13;;;;;;;1.38;0.80;;;13.80;99.90;;;;;;7394754;19;20153;-83
2022/09/17 06:17:40;;;;;;;4.07;1.13;;;13.60;99.90;;;;;;7395562;19;20145;-86
2022/09/17 06:20:06;;;;;;;6.93;2.30;;;13.70;99.90;;;;;;7394776;19;20139;-84
2022/09/17 06:22:32;;;;;;;3.97;2.00;;;13.60;99.90;;;;;;7394012;19;20209;-84
2022/09/17 06:24:59;;;;;;;3.13;1.23;;;13.70;99.90;;;;;;7395001;19;20174;-84
2022/09/17 06:27:33;;;;;;;4.07;1.23;;;13.70;99.90;;;;;;7393916;19;20142;-87
2022/09/17 06:29:59;;;;;;;6.03;1.20;;;13.70;99.90;;;;;;7395725;19;20138;-86
2022/09/17 06:32:26;;;;;;;5.47;1.03;;;13.80;99.90;;;;;;7391607;19;20146;-80
2022/09/17 06:34:52;;;;;;;2.33;1.03;;;13.60;99.90;;;;;;7391702;19;20175;-81
2022/09/17 06:37:18;;;;;;;2.63;1.13;;;13.70;99.90;;;;;;7390936;19;20214;-81
2022/09/17 06:39:44;;;;;;;3.77;1.30;;;13.90;99.90;;;;;;7390655;19;20155;-81
2022/09/17 06:42:11;;;;;;;4.33;1.17;;;13.90;99.90;;;;;;7395000;19;20150;-81
2022/09/17 06:44:37;;;;;;;1.20;0.73;;;13.90;99.90;;;;;;7393925;19;20145;-81
2022/09/17 06:47:03;;;;;;;2.87;1.03;;;13.80;99.90;;;;;;7392901;19;20544;-81
2022/09/17 06:49:30;;;;;;;2.10;0.70;;;13.80;99.90;;;;;;7391758;19;20137;-80
2022/09/17 06:51:56;;;;;;;4.27;0.93;;;13.50;99.90;;;;;;7394333;19;20206;-80
2022/09/17 06:54:21;;;;;;;6.93;1.23;;;13.20;99.90;;;;;;7393326;19;20561;-81
2022/09/17 06:56:47;;;;;;;4.67;1.00;;;13.30;99.90;;;;;;7391884;19;20206;-81
2022/09/17 06:59:13;;;;;;;5.07;1.10;;;13.30;99.90;;;;;;7402802;19;20166;-81
2022/09/17 07:01:38;;;;;;;3.63;1.03;;;13.20;99.90;;;;;;7394434;19;20671;-82
2022/09/17 07:04:04;;;;;;;3.08;0.80;;;13.40;99.90;;;;;;7394972;19;20214;-83
2022/09/17 07:06:30;;;;;;;2.47;0.87;;;13.70;99.90;;;;;;7392951;19;20142;-85
2022/09/17 07:08:57;;;;;;;2.03;0.90;;;13.70;99.90;;;;;;7394394;19;20158;-81
2022/09/17 07:11:23;;;;;;;2.17;1.00;;;13.70;99.90;;;;;;7395960;19;20652;-85
2022/09/17 07:13:49;;;;;;;2.37;1.07;;;13.50;99.90;;;;;;7394790;19;20161;-82
2022/09/17 07:16:15;;;;;;;1.93;0.80;;;13.50;99.90;;;;;;7398924;19;20498;-83
2022/09/17 07:18:41;;;;;;;2.03;1.00;;;13.60;99.90;;;;;;7399229;19;20154;-83
2022/09/17 07:21:08;;;;;;;2.63;0.97;;;13.10;99.90;;;;;;7401155;19;20139;-82
2022/09/17 07:23:36;;;;;;;3.10;1.30;;;13.10;99.90;;;;;;7398935;19;20158;-81
2022/09/17 07:26:13;;;;;;;2.73;1.43;;;13.20;99.90;;;;;;7388454;19;20980;-82
2022/09/17 07:28:40;;;;;;;2.50;1.60;;;13.30;99.90;;;;;;7389658;19;20209;-83
2022/09/17 07:31:06;;;;;;;1.83;0.90;;;13.20;99.90;;;;;;7400490;19;20157;-82
2022/09/17 07:33:34;;;;;;;4.40;1.27;;;13.40;99.90;;;;;;7401088;19;20145;-82
2022/09/17 07:36:02;;;;;;;2.73;1.10;;;13.40;99.90;;;;;;7400451;19;20237;-82
2022/09/17 07:38:28;;;;;;;2.60;1.23;;;13.40;99.90;;;;;;7398344;19;20151;-82
2022/09/17 07:40:58;;;;;;;2.30;0.97;;;13.50;99.90;;;;;;7400962;19;20142;-82
2022/09/17 07:43:29;;;;;;;3.60;1.20;;;13.40;99.90;;;;;;7403326;19;20138;-88
2022/09/17 07:45:57;;;;;;;3.17;0.90;;;13.30;99.90;;;;;;7402658;19;20238;-88
2022/09/17 07:48:23;;;;;;;1.77;0.90;;;13.10;99.90;;;;;;7397432;19;20158;-83
2022/09/17 07:50:49;;;;;;;2.80;1.00;;;13.20;99.90;;;;;;7400365;19;20151;-81
2022/09/17 07:53:14;;;;;;;1.57;0.90;;;13.20;99.90;;;;;;7398517;19;20166;-81
2022/09/17 07:55:41;;;;;;;2.03;0.87;;;13.20;99.90;;;;;;7402177;19;20143;-86
2022/09/17 07:58:10;;;;;;;1.30;0.80;;;13.30;99.90;;;;;;7399664;19;20154;-81
2022/09/17 08:00:35;;;;;;;2.53;1.10;;;13.40;99.90;;;;;;7398708;19;20138;-77
2022/09/17 08:03:01;;;;;;;2.10;1.20;;;13.40;99.90;;;;;;7399166;19;20194;-85
2022/09/17 08:05:27;;;;;;;6.03;1.23;;;13.50;99.90;;;;;;7398221;19;20592;-84
2022/09/17 08:07:54;;;;;;;3.77;1.10;;;13.20;99.90;;;;;;7394581;19;20600;-83
2022/09/17 08:10:22;;;;;;;2.17;1.20;;;13.50;99.90;;;;;;7398057;19;20217;-83
2022/09/17 08:12:55;;;;;;;3.60;1.30;;;13.50;99.90;;;;;;7393924;19;20134;-85
2022/09/17 08:15:22;;;;;;;2.57;1.13;;;13.60;99.90;;;;;;7395791;19;20139;-82
2022/09/17 08:17:48;;;;;;;4.87;1.10;;;13.70;99.90;;;;;;7396424;19;20165;-83
2022/09/17 08:20:14;;;;;;;2.83;1.13;;;13.50;99.90;;;;;;7395400;19;20134;-82
2022/09/17 08:22:41;;;;;;;2.70;1.00;;;13.40;99.90;;;;;;7397282;19;20127;-85
2022/09/17 08:25:08;;;;;;;2.27;1.10;;;13.60;99.90;;;;;;7394990;19;20511;-83
2022/09/17 08:27:37;;;;;;;5.77;2.33;;;13.70;99.90;;;;;;7393315;19;20151;-85
2022/09/17 08:30:05;;;;;;;3.23;1.33;;;13.70;99.90;;;;;;7392180;19;20158;-86
2022/09/17 08:32:30;;;;;;;5.40;1.20;;;13.60;99.90;;;;;;7390292;19;20157;-84
2022/09/17 08:34:56;;;;;;;4.40;1.30;;;13.70;99.90;;;;;;7392162;19;20186;-79
2022/09/17 08:37:22;;;;;;;5.17;1.23;;;13.80;99.90;;;;;;7396177;19;20606;-85
2022/09/17 08:39:48;;;;;;;4.00;1.30;;;13.90;99.90;;;;;;7398390;19;20138;-86
2022/09/17 08:42:38;;;;;;;3.47;1.50;;;13.90;99.90;;;;;;7397786;19;20214;-85
2022/09/17 08:45:09;;;;;;;4.47;1.70;;;13.90;99.90;;;;;;7398868;19;20138;-85
2022/09/17 08:47:38;;;;;;;4.30;1.60;;;14.10;99.90;;;;;;7395426;19;20237;-86
2022/09/17 08:50:10;;;;;;;4.57;2.03;;;14.20;99.90;;;;;;7394589;19;20161;-85
2022/09/17 08:53:17;;;;;;;1.92;1.10;;;14.20;99.90;;;;;;7395859;19;20184;-84
2022/09/17 08:56:02;;;;;;;5.53;1.80;;;14.20;99.90;;;;;;7396852;19;20137;-85
2022/09/17 08:59:09;;;;;;;5.47;1.33;;;14.00;99.90;;;;;;7395581;19;20149;-85
2022/09/17 09:02:06;;;;;;;8.03;1.90;;;13.90;99.90;;;;;;7393350;19;20143;-85
2022/09/17 09:05:01;;;;;;;6.03;1.53;;;14.00;99.90;;;;;;7395844;19;20495;-87
2022/09/17 09:07:36;;;;;;;6.53;1.80;;;14.10;99.90;;;;;;7396161;19;20134;-84
2022/09/17 09:10:03;;;;;;;5.68;1.45;;;14.10;99.90;;;;;;7396558;19;20225;-84
2022/09/17 09:12:34;;;;;;;4.70;1.40;;;14.20;99.90;;;;;;7391537;19;20143;-84
2022/09/17 09:15:16;;;;;;;7.60;1.17;;;14.10;99.90;;;;;;7391724;19;20138;-78
2022/09/17 09:17:45;;;;;;;8.90;1.55;;;14.30;99.90;;;;;;7389030;19;20619;-82
2022/09/17 09:20:31;;;;;;;3.30;1.30;;;14.60;99.90;;;;;;7398718;19;20158;-82
2022/09/17 09:23:04;;;;;;;9.25;2.50;;;14.80;99.90;;;;;;7390435;19;20149;-84
2022/09/17 09:25:40;;;;;;;1.95;1.15;;;14.40;99.90;;;;;;7391003;19;20919;-84
2022/09/17 09:28:25;;;;;;;4.28;1.70;;;14.50;99.90;;;;;;7388250;19;20150;-84
2022/09/17 09:30:57;;;;;;;6.20;1.42;;;14.40;99.90;;;;;;7391448;19;20162;-82
2022/09/17 09:33:30;;;;;;;2.83;1.40;;;14.70;99.90;;;;;;7391277;19;20480;-83
2022/09/17 09:35:57;;;;;;;4.35;1.75;;;14.50;99.90;;;;;;7393084;19;20584;-83
2022/09/17 09:38:48;;;;;;;5.43;1.50;;;14.40;99.90;;;;;;7388928;19;20202;-85
2022/09/17 09:41:35;;;;;;;5.35;1.42;;;14.60;99.90;;;;;;7391634;19;20262;-82
2022/09/17 09:44:09;;;;;;;3.95;1.27;;;14.50;99.90;;;;;;7396329;19;20139;-85
2022/09/17 09:46:53;;;;;;;5.87;1.80;;;14.60;99.90;;;;;;7394334;19;20135;-83
2022/09/17 09:49:19;;;;;;;4.65;1.95;;;14.80;99.90;;;;;;7394123;19;20587;-82
2022/09/17 09:52:09;;;;;;;6.32;2.90;;;14.90;99.90;;;;;;7394808;19;20149;-85
2022/09/17 09:54:47;;;;;;;4.15;1.70;;;14.80;99.90;;;;;;7395210;19;20275;-83
2022/09/17 09:57:16;;;;;;;3.22;1.20;;;14.70;99.90;;;;;;7397619;19;20135;-86
2022/09/17 09:59:42;;;;;;;5.07;1.98;;;14.40;99.90;;;;;;7395022;19;21778;-85
2022/09/17 10:02:09;;;;;;;4.63;1.45;;;14.70;99.90;;;;;;7394512;19;20158;-84
2022/09/17 10:04:35;;;;;;;3.38;1.35;;;14.70;99.90;;;;;;7395509;19;20134;-83
2022/09/17 10:07:08;;;;;;;8.30;1.77;;;14.70;99.90;;;;;;7392620;19;20146;-84
2022/09/17 10:09:36;;;;;;;3.38;1.25;;;14.60;99.90;;;;;;7395920;19;20584;-85
2022/09/17 10:12:08;;;;;;;2.47;1.13;;;14.40;99.90;;;;;;7394677;19;20163;-84
2022/09/17 10:14:35;;;;;;;2.80;1.33;;;14.60;99.90;;;;;;7396462;19;20164;-84
2022/09/17 10:17:15;;;;;;;3.90;1.10;;;14.70;99.90;;;;;;7393716;19;20131;-82
2022/09/17 10:19:42;;;;;;;2.50;1.30;;;14.90;99.90;;;;;;7393544;19;20599;-84
2022/09/17 10:22:29;;;;;;;4.15;1.10;;;15.00;99.90;;;;;;7394676;19;20643;-84
2022/09/17 10:24:56;;;;;;;3.35;1.42;;;15.00;99.90;;;;;;7392776;19;20146;-85
2022/09/17 10:27:24;;;;;;;7.53;2.00;;;15.20;99.90;;;;;;7398604;19;20142;-86
2022/09/17 10:29:57;;;;;;;2.83;1.15;;;15.10;99.90;;;;;;7404088;19;20134;-83
2022/09/17 10:32:23;;;;;;;2.85;1.20;;;15.10;99.90;;;;;;7397697;19;20165;-84
2022/09/17 10:35:21;;;;;;;3.47;1.55;;;15.30;99.90;;;;;;7397018;19;20138;-85
2022/09/17 10:37:52;;;;;;;5.15;1.63;;;15.50;99.90;;;;;;7396270;19;20489;-83
2022/09/17 10:40:17;;;;;;;2.05;1.25;;;15.50;99.90;;;;;;7399537;19;20156;-84
2022/09/17 10:43:22;;;;;;;2.42;1.00;;;15.40;99.90;;;;;;7401479;19;20166;-84
2022/09/17 10:45:57;;;;;;;2.95;1.20;;;15.50;99.90;;;;;;7397460;19;20137;-81
2022/09/17 10:48:28;;;;;;;3.28;1.35;;;15.80;99.90;;;;;;7397582;19;20142;-84
2022/09/17 10:50:55;;;;;;;2.90;1.05;;;15.90;99.90;;;;;;7399270;19;20888;-84
2022/09/17 10:53:25;;;;;;;2.90;1.00;;;15.80;99.90;;;;;;7401941;19;20494;-84
2022/09/17 10:56:10;;;;;;;3.53;0.80;;;15.90;99.90;;;;;;7398799;19;20130;-86
2022/09/17 10:58:56;;;;;;;3.95;1.65;;;15.90;99.90;;;;;;7391752;19;20138;-84
2022/09/17 11:01:40;;;;;;;1.23;0.70;;;16.10;99.90;;;;;;7392957;19;20151;-84
2022/09/17 11:04:18;;;;;;;5.53;2.72;;;16.30;99.90;;;;;;7393734;19;20130;-84
2022/09/17 11:07:10;;;;;;;5.13;1.00;;;16.30;99.90;;;;;;7395199;19;20238;-85
2022/09/17 11:10:01;;;;;;;2.65;0.90;;;16.30;99.90;;;;;;7394111;19;20171;-84
2022/09/17 11:12:44;;;;;;;3.75;1.92;;;16.10;99.90;;;;;;7393776;19;20134;-82
2022/09/17 11:15:25;;;;;;;2.80;1.40;;;16.10;99.90;;;;;;7387141;19;20150;-82
2022/09/17 11:18:18;;;;;;;5.45;1.67;;;16.20;99.90;;;;;;7392249;19;20134;-84
2022/09/17 11:20:57;;;;;;;4.00;1.05;;;16.20;99.90;;;;;;7390723;19;20503;-85
2022/09/17 11:23:47;;;;;;;2.90;1.20;;;16.20;99.90;;;;;;7392077;19;20153;-83
2022/09/17 11:26:28;;;;;;;4.75;1.08;;;16.00;99.90;;;;;;7389573;19;20138;-85
2022/09/17 11:29:13;;;;;;;2.38;1.05;;;16.00;99.90;;;;;;7391181;19;20154;-84
2022/09/17 11:32:00;;;;;;;6.70;1.00;;;16.20;99.90;;;;;;7391595;19;20134;-84
2022/09/17 11:34:34;;;;;;;2.53;0.90;;;16.00;99.90;;;;;;7388000;19;20773;-85
2022/09/17 11:37:24;;;;;;;3.17;1.05;;;15.90;99.90;;;;;;7391300;19;20147;-82
2022/09/17 11:40:12;;;;;;;2.30;1.00;;;16.10;99.90;;;;;;7390174;19;20134;-83
2022/09/17 11:42:45;;;;;;;2.17;1.02;;;16.00;99.90;;;;;;7388775;19;20146;-84
2022/09/17 11:45:36;;;;;;;2.75;0.90;;;16.20;99.90;;;;;;7389846;19;20649;-84
2022/09/17 11:48:34;;;;;;;3.17;1.00;;;16.30;99.90;;;;;;7388741;19;20599;-85
2022/09/17 11:51:27;;;;;;;1.42;0.80;;;16.50;99.90;;;;;;7389441;19;20155;-84
2022/09/17 11:54:27;;;;;;;2.20;1.10;;;16.40;99.90;;;;;;7391862;19;20146;-85
2022/09/17 11:57:15;;;;;;;3.63;1.40;;;16.60;99.90;;;;;;7391416;19;20139;-84
2022/09/17 12:00:00;;;;;;;2.33;0.80;;;16.70;99.90;;;;;;7390209;19;20139;-87
2022/09/17 12:02:52;;;;;;;2.55;0.88;;;16.60;99.90;;;;;;7393436;19;20614;-85
2022/09/17 12:05:40;;;;;;;5.90;1.00;;;16.60;99.90;;;;;;7396709;19;20150;-85
2022/09/17 12:08:38;;;;;;;1.58;0.60;;;16.50;99.90;;;;;;7398507;19;20155;-85
2022/09/17 12:11:38;;;;;;;2.00;0.80;;;16.50;99.90;;;;;;7394646;19;20146;-85
2022/09/17 12:14:22;;;;;;;2.15;0.90;;;16.70;99.90;;;;;;7399822;19;20130;-85
2022/09/17 12:16:55;;;;;;;1.83;0.90;;;16.40;99.90;;;;;;7399510;19;20160;-84
2022/09/17 12:19:40;;;;;;;2.90;0.88;;;16.30;99.90;;;;;;7397410;19;20596;-84
2022/09/17 12:22:20;;;;;;;0.82;0.75;;;16.30;99.90;;;;;;7399687;19;20233;-83
2022/09/17 12:24:49;;;;;;;3.03;1.00;;;16.30;99.90;;;;;;7397947;19;20918;-83
2022/09/17 12:27:29;;;;;;;2.15;1.00;;;16.10;99.90;;;;;;7399063;19;20448;-85
2022/09/17 12:30:15;;;;;;;3.72;1.38;;;15.90;99.90;;;;;;7395237;19;20580;-80
2022/09/17 12:33:08;;;;;;;2.58;0.73;;;15.80;99.90;;;;;;7395237;19;20174;-83
2022/09/17 12:35:49;;;;;;;2.25;0.90;;;15.60;99.90;;;;;;7398677;19;20622;-83
2022/09/17 12:38:39;;;;;;;2.45;0.70;;;15.40;99.90;;;;;;7386756;19;20166;-80
2022/09/17 12:41:36;;;;;;;2.47;1.60;;;15.50;99.90;;;;;;7399892;19;20134;-82
2022/09/17 12:44:29;;;;;;;2.83;1.40;;;15.90;99.90;;;;;;7396046;19;20138;-84
2022/09/17 12:47:29;;;;;;;4.35;2.15;;;16.00;99.90;;;;;;7399535;19;20149;-84
2022/09/17 12:50:43;;;;;;;2.95;0.90;;;16.10;99.90;;;;;;7397614;19;20212;-84
2022/09/17 12:53:28;;;;;;;2.35;0.80;;;15.90;99.90;;;;;;7397080;19;20658;-84
2022/09/17 12:56:13;;;;;;;1.20;0.70;;;15.50;99.90;;;;;;7395359;19;20783;-83
2022/09/17 12:58:50;;;;;;;2.80;0.82;;;15.30;99.90;;;;;;7398800;19;20584;-85
2022/09/17 13:01:41;;;;;;;2.85;0.70;;;15.30;99.90;;;;;;7396043;19;20130;-83
2022/09/17 13:04:20;;;;;;;2.58;0.60;;;15.10;99.90;;;;;;7394371;19;20520;-85
2022/09/17 13:07:03;;;;;;;0.80;0.50;;;14.80;99.90;;;;;;7398048;19;20189;-83
2022/09/17 13:09:31;;;;;;;1.00;0.55;;;14.60;99.90;;;;;;7394274;19;20165;-85
2022/09/17 13:12:19;;;;;;;2.15;0.70;;;14.80;99.90;;;;;;7388841;19;20158;-84
2022/09/17 13:15:09;;;;;;;0.93;0.63;;;15.00;99.90;;;;;;7388168;19;20489;-84
2022/09/17 13:17:48;;;;;;;0.82;0.50;;;14.60;99.90;;;;;;7393082;19;20149;-81
2022/09/17 13:20:30;;;;;;;1.53;0.50;;;14.30;99.90;;;;;;7395023;19;20169;-81